createdAt,value
2023-01-05T00:00:51.844Z,7.43
2023-01-05T00:03:18.504Z,6.80
2023-01-05T00:05:45.109Z,6.87
2023-01-05T00:08:12.234Z,7.10
2023-01-05T00:10:57.719Z,6.97
2023-01-05T00:13:47.532Z,7.60
2023-01-05T00:16:33.017Z,7.47
2023-01-05T00:19:18.298Z,7.70
2023-01-05T00:22:03.648Z,6.83
2023-01-05T00:24:30.355Z,6.90
2023-01-05T00:26:56.960Z,7.50
2023-01-05T00:29:23.593Z,6.20
2023-01-05T00:31:50.220Z,6.60
2023-01-05T00:34:16.835Z,6.90
2023-01-05T00:36:43.429Z,7.67
2023-01-05T00:39:10.012Z,7.10
2023-01-05T00:41:36.609Z,7.00
2023-01-05T00:44:03.202Z,6.93
2023-01-05T00:46:29.807Z,6.90
2023-01-05T00:48:56.468Z,7.27
2023-01-05T00:51:23.080Z,6.87
2023-01-05T00:53:49.700Z,6.47
2023-01-05T00:56:16.307Z,6.73
2023-01-05T00:58:42.902Z,7.07
2023-01-05T01:01:12.863Z,7.03
2023-01-05T01:03:39.749Z,7.00
2023-01-05T01:06:06.542Z,6.53
2023-01-05T01:08:33.182Z,6.77
2023-01-05T01:11:06.835Z,6.70
2023-01-05T01:13:33.438Z,6.10
2023-01-05T01:16:06.804Z,6.77
2023-01-05T01:18:33.477Z,6.47
2023-01-05T01:21:00.102Z,6.70
2023-01-05T01:23:27.021Z,6.73
2023-01-05T01:25:53.663Z,6.23
2023-01-05T01:28:20.275Z,6.80
2023-01-05T01:30:46.858Z,6.47
2023-01-05T01:33:13.471Z,6.23
2023-01-05T01:35:40.055Z,6.53
2023-01-05T01:38:06.649Z,6.60
2023-01-05T01:40:41.485Z,6.23
2023-01-05T01:43:19.178Z,6.63
2023-01-05T01:45:45.822Z,6.53
2023-01-05T01:48:14.561Z,6.20
2023-01-05T01:50:43.888Z,6.27
2023-01-05T01:53:31.770Z,6.70
2023-01-05T01:56:00.367Z,6.87
2023-01-05T01:58:27.752Z,6.70
2023-01-05T02:00:54.480Z,6.77
2023-01-05T02:03:21.122Z,6.20
2023-01-05T02:05:47.724Z,6.00
2023-01-05T02:08:15.350Z,6.50
2023-01-05T02:11:05.794Z,6.27
2023-01-05T02:13:54.016Z,6.23
2023-01-05T02:16:37.621Z,6.30
2023-01-05T02:19:44.554Z,6.07
2023-01-05T02:22:44.796Z,5.93
2023-01-05T02:25:43.721Z,5.90
2023-01-05T02:28:28.791Z,5.67
2023-01-05T02:31:08.764Z,6.07
2023-01-05T02:34:07.401Z,6.17
2023-01-05T02:36:40.398Z,6.00
2023-01-05T02:39:28.223Z,6.37
2023-01-05T02:42:22.675Z,5.93
2023-01-05T02:44:49.502Z,5.70
2023-01-05T02:47:25.121Z,6.00
2023-01-05T02:49:52.753Z,5.90
2023-01-05T02:52:19.407Z,5.40
2023-01-05T02:54:51.798Z,5.73
2023-01-05T02:57:20.377Z,5.43
2023-01-05T02:59:53.348Z,5.80
2023-01-05T03:02:22.393Z,5.97
2023-01-05T03:04:51.238Z,4.83
2023-01-05T03:07:21.764Z,5.93
2023-01-05T03:09:48.362Z,5.20
2023-01-05T03:12:51.609Z,5.70
2023-01-05T03:15:26.767Z,5.67
2023-01-05T03:17:58.999Z,5.53
2023-01-05T03:20:29.678Z,5.50
2023-01-05T03:23:15.306Z,5.20
2023-01-05T03:26:00.389Z,5.40
2023-01-05T03:28:49.083Z,5.03
2023-01-05T03:31:38.807Z,5.53
2023-01-05T03:34:50.807Z,5.73
2023-01-05T03:37:18.906Z,5.50
2023-01-05T03:39:46.089Z,5.37
2023-01-05T03:42:14.131Z,5.83
2023-01-05T03:44:41.838Z,5.60
2023-01-05T03:47:08.453Z,5.57
2023-01-05T03:49:35.086Z,5.37
2023-01-05T03:52:01.707Z,5.50
2023-01-05T03:54:28.303Z,5.27
2023-01-05T03:56:54.893Z,5.30
2023-01-05T03:59:21.498Z,5.00
2023-01-05T04:01:48.174Z,5.13
2023-01-05T04:04:14.842Z,5.40
2023-01-05T04:06:41.435Z,5.73
2023-01-05T04:09:08.044Z,5.27
2023-01-05T04:11:34.648Z,5.70
2023-01-05T04:14:01.479Z,5.17
2023-01-05T04:16:28.776Z,5.60
2023-01-05T04:18:55.503Z,5.00
2023-01-05T04:21:22.134Z,5.10
2023-01-05T04:23:48.773Z,4.87
2023-01-05T04:26:15.373Z,4.90
2023-01-05T04:28:41.986Z,5.67
2023-01-05T04:31:08.627Z,5.27
2023-01-05T04:33:36.324Z,5.17
2023-01-05T04:36:02.950Z,5.23
2023-01-05T04:38:29.541Z,5.30
2023-01-05T04:40:56.156Z,4.90
2023-01-05T04:43:23.075Z,5.27
2023-01-05T04:45:49.806Z,4.50
2023-01-05T04:48:16.450Z,4.93
2023-01-05T04:50:43.270Z,4.80
2023-01-05T04:53:10.055Z,4.67
2023-01-05T04:55:36.674Z,4.90
2023-01-05T04:58:08.315Z,5.17
2023-01-05T05:00:38.244Z,5.07
2023-01-05T05:03:04.921Z,4.90
2023-01-05T05:05:31.741Z,5.27
2023-01-05T05:07:58.374Z,4.83
2023-01-05T05:10:25.000Z,5.10
2023-01-05T05:12:51.592Z,4.57
2023-01-05T05:15:18.312Z,5.00
2023-01-05T05:17:44.922Z,4.77
2023-01-05T05:20:12.050Z,4.77
2023-01-05T05:22:38.662Z,4.63
2023-01-05T05:25:05.838Z,4.83
2023-01-05T05:27:32.421Z,4.87
2023-01-05T05:29:59.017Z,4.80
2023-01-05T05:32:25.615Z,4.43
2023-01-05T05:34:52.209Z,4.60
2023-01-05T05:37:18.789Z,4.97
2023-01-05T05:39:45.418Z,4.43
2023-01-05T05:42:12.144Z,4.77
2023-01-05T05:44:39.341Z,4.70
2023-01-05T05:47:06.004Z,4.60
2023-01-05T05:49:32.646Z,4.50
2023-01-05T05:51:59.284Z,4.47
2023-01-05T05:54:25.887Z,4.60
2023-01-05T05:56:52.518Z,4.60
2023-01-05T05:59:19.191Z,4.87
2023-01-05T06:01:45.883Z,4.43
2023-01-05T06:04:12.644Z,4.57
2023-01-05T06:06:39.820Z,3.83
2023-01-05T06:09:06.573Z,4.73
2023-01-05T06:11:33.424Z,5.17
2023-01-05T06:14:00.181Z,4.30
2023-01-05T06:16:26.847Z,4.40
2023-01-05T06:18:53.469Z,4.80
2023-01-05T06:21:21.401Z,4.30
2023-01-05T06:23:48.179Z,4.87
2023-01-05T06:26:14.814Z,4.73
2023-01-05T06:28:41.411Z,4.87
2023-01-05T06:31:08.091Z,4.00
2023-01-05T06:33:34.711Z,4.63
2023-01-05T06:36:01.365Z,4.70
2023-01-05T06:38:28.057Z,4.00
2023-01-05T06:40:54.750Z,4.70
2023-01-05T06:43:21.495Z,4.40
2023-01-05T06:45:48.215Z,4.50
2023-01-05T06:48:14.837Z,5.00
2023-01-05T06:50:41.468Z,4.40
2023-01-05T06:53:08.093Z,4.37
2023-01-05T06:55:34.703Z,4.33
2023-01-05T06:58:01.577Z,4.43
2023-01-05T07:00:28.552Z,4.03
2023-01-05T07:02:55.208Z,4.23
2023-01-05T07:05:23.205Z,4.40
2023-01-05T07:07:50.136Z,4.53
2023-01-05T07:10:16.806Z,4.40
2023-01-05T07:12:43.401Z,3.87
2023-01-05T07:15:10.302Z,3.80
2023-01-05T07:17:36.907Z,4.53
2023-01-05T07:20:05.042Z,4.60
2023-01-05T07:22:31.731Z,3.93
2023-01-05T07:24:58.857Z,3.80
2023-01-05T07:27:25.477Z,4.73
2023-01-05T07:29:52.075Z,4.20
2023-01-05T07:32:18.819Z,4.67
2023-01-05T07:34:54.970Z,4.00
2023-01-05T07:37:24.511Z,3.97
2023-01-05T07:39:51.209Z,4.03
2023-01-05T07:42:17.806Z,4.03
2023-01-05T07:44:45.251Z,3.87
2023-01-05T07:47:11.972Z,3.90
2023-01-05T07:49:38.645Z,4.70
2023-01-05T07:52:05.256Z,3.97
2023-01-05T07:54:31.843Z,4.00
2023-01-05T07:56:58.463Z,4.53
2023-01-05T07:59:25.109Z,5.10
2023-01-05T08:01:51.824Z,4.67
2023-01-05T08:04:18.485Z,5.13
2023-01-05T08:06:45.116Z,4.37
2023-01-05T08:09:30.002Z,4.87
2023-01-05T08:11:56.608Z,5.27
2023-01-05T08:14:23.198Z,5.20
2023-01-05T08:16:49.975Z,5.47
2023-01-05T08:19:16.611Z,5.17
2023-01-05T08:21:43.210Z,5.03
2023-01-05T08:24:09.805Z,4.50
2023-01-05T08:26:36.458Z,4.67
2023-01-05T08:29:03.123Z,4.93
2023-01-05T08:31:30.602Z,4.83
2023-01-05T08:33:59.727Z,5.23
2023-01-05T08:36:26.641Z,5.17
2023-01-05T08:38:53.780Z,4.30
2023-01-05T08:41:22.513Z,5.50
2023-01-05T08:43:53.023Z,5.50
2023-01-05T08:46:20.633Z,5.17
2023-01-05T08:48:51.191Z,4.60
2023-01-05T08:51:17.939Z,4.40
2023-01-05T08:53:44.640Z,4.87
2023-01-05T08:56:11.320Z,4.57
2023-01-05T08:58:38.564Z,4.97
2023-01-05T09:01:09.301Z,4.33
2023-01-05T09:03:36.027Z,4.80
2023-01-05T09:06:03.428Z,5.20
2023-01-05T09:08:30.910Z,5.27
2023-01-05T09:11:06.958Z,5.10
2023-01-05T09:13:33.812Z,5.33
2023-01-05T09:16:11.217Z,4.90
2023-01-05T09:18:38.349Z,4.80
2023-01-05T09:21:06.157Z,4.67
2023-01-05T09:23:33.219Z,4.77
2023-01-05T09:25:59.844Z,4.20
2023-01-05T09:28:26.561Z,4.10
2023-01-05T09:30:53.219Z,4.23
2023-01-05T09:33:19.866Z,4.00
2023-01-05T09:35:56.413Z,4.40
2023-01-05T09:38:23.565Z,4.27
2023-01-05T09:40:51.287Z,4.10
2023-01-05T09:43:27.373Z,4.27
2023-01-05T09:45:54.099Z,3.93
2023-01-05T09:48:20.740Z,4.30
2023-01-05T09:50:48.321Z,3.90
2023-01-05T09:53:15.670Z,4.00
2023-01-05T09:55:42.584Z,3.97
2023-01-05T09:58:17.572Z,4.93
2023-01-05T10:00:45.953Z,6.10
2023-01-05T10:03:53.202Z,5.50
2023-01-05T10:06:16.069Z,6.57
2023-01-05T10:08:46.997Z,6.43
2023-01-05T10:12:02.029Z,6.03
2023-01-05T10:14:30.029Z,6.47
2023-01-05T10:17:30.184Z,6.00
2023-01-05T10:19:43.247Z,6.23
2023-01-05T10:22:26.856Z,6.50
2023-01-05T10:25:08.606Z,6.07
2023-01-05T10:27:42.037Z,5.80
2023-01-05T10:30:25.924Z,7.47
2023-01-05T10:33:25.506Z,5.73
2023-01-05T10:36:01.905Z,6.33
2023-01-05T10:38:55.148Z,6.47
2023-01-05T10:41:36.926Z,5.60
2023-01-05T10:44:50.345Z,5.60
2023-01-05T10:47:16.964Z,5.57
2023-01-05T10:49:45.106Z,5.77
2023-01-05T10:52:14.329Z,5.43
2023-01-05T10:54:44.532Z,5.10
2023-01-05T10:57:36.509Z,5.40
2023-01-05T11:00:12.527Z,5.57
2023-01-05T11:02:48.093Z,5.50
2023-01-05T11:05:19.078Z,4.90
2023-01-05T11:08:18.381Z,5.47
2023-01-05T11:10:53.132Z,5.10
2023-01-05T11:13:22.855Z,4.40
2023-01-05T11:15:57.358Z,5.23
2023-01-05T11:18:30.611Z,4.60
2023-01-05T11:21:07.892Z,5.13
2023-01-05T11:23:48.508Z,5.57
2023-01-05T11:26:18.089Z,4.03
2023-01-05T11:29:02.847Z,4.60
2023-01-05T11:31:35.437Z,4.67
2023-01-05T11:34:28.548Z,5.17
2023-01-05T11:37:08.362Z,4.47
2023-01-05T11:39:37.777Z,4.60
2023-01-05T11:42:17.438Z,4.37
2023-01-05T11:44:55.780Z,4.00
2023-01-05T11:47:45.863Z,4.97
2023-01-05T11:50:47.604Z,4.10
2023-01-05T11:53:31.842Z,4.33
2023-01-05T11:56:01.410Z,4.00
2023-01-05T11:58:44.190Z,4.13
2023-01-05T12:01:27.280Z,3.97
2023-01-05T12:04:08.123Z,3.50
2023-01-05T12:06:34.711Z,3.87
2023-01-05T12:09:06.865Z,3.60
2023-01-05T12:11:44.137Z,4.53
2023-01-05T12:14:30.480Z,4.67
2023-01-05T12:16:57.150Z,4.17
2023-01-05T12:19:33.634Z,4.10
2023-01-05T12:22:21.225Z,4.10
2023-01-05T12:25:06.555Z,4.33
2023-01-05T12:28:00.423Z,4.27
2023-01-05T12:34:05.042Z,5.57
2023-01-05T12:36:45.765Z,4.90
2023-01-05T12:39:35.623Z,5.77
2023-01-05T12:42:27.283Z,5.40
2023-01-05T12:45:03.085Z,6.00
2023-01-05T12:47:48.683Z,5.83
2023-01-05T12:50:38.687Z,5.47
2023-01-05T12:53:29.486Z,4.90
2023-01-05T12:55:57.355Z,5.63
2023-01-05T12:58:43.275Z,5.53
2023-01-05T13:01:25.774Z,5.33
2023-01-05T13:04:04.141Z,5.37
2023-01-05T13:06:35.434Z,4.53
2023-01-05T13:09:21.728Z,5.53
2023-01-05T13:12:08.038Z,5.30
2023-01-05T13:14:35.946Z,5.30
2023-01-05T13:17:23.144Z,5.17
2023-01-05T13:20:02.239Z,5.30
2023-01-05T13:22:34.162Z,5.30
2023-01-05T13:25:05.581Z,5.67
2023-01-05T13:27:32.728Z,6.43
2023-01-05T13:29:59.612Z,5.10
2023-01-05T13:32:53.847Z,5.10
2023-01-05T13:35:58.157Z,4.93
2023-01-05T13:38:59.874Z,5.43
2023-01-05T13:41:41.249Z,5.17
2023-01-05T13:44:20.522Z,6.00
2023-01-05T13:47:15.789Z,6.47
2023-01-05T13:49:59.192Z,7.03
2023-01-05T13:53:03.322Z,8.03
2023-01-05T13:55:29.929Z,6.03
2023-01-05T13:57:56.586Z,6.70
2023-01-05T14:00:30.845Z,6.73
2023-01-05T14:03:09.693Z,6.53
2023-01-05T14:05:59.655Z,6.50
2023-01-05T14:08:34.398Z,6.27
2023-01-05T14:11:14.458Z,7.17
2023-01-05T14:14:04.738Z,6.27
2023-01-05T14:16:34.834Z,6.17
2023-01-05T14:19:32.881Z,5.70
2023-01-05T14:22:23.645Z,5.87
2023-01-05T14:24:50.303Z,6.50
2023-01-05T14:27:21.153Z,5.73
2023-01-05T14:29:53.912Z,5.30
2023-01-05T14:32:26.167Z,6.50
2023-01-05T14:34:57.881Z,6.00
2023-01-05T14:37:39.966Z,5.70
2023-01-05T14:40:20.664Z,7.57
2023-01-05T14:42:47.689Z,8.07
2023-01-05T14:45:31.479Z,8.27
2023-01-05T14:47:59.674Z,7.07
2023-01-05T14:50:42.508Z,6.90
2023-01-05T14:53:22.047Z,6.87
2023-01-05T14:55:51.407Z,6.80
2023-01-05T14:58:38.212Z,7.17
2023-01-05T15:01:18.749Z,7.40
2023-01-05T15:04:07.963Z,7.30
2023-01-05T15:06:55.193Z,7.70
2023-01-05T15:09:48.398Z,6.80
2023-01-05T15:12:24.443Z,7.13
2023-01-05T15:15:16.319Z,7.60
2023-01-05T15:17:59.113Z,6.73
2023-01-05T15:20:44.407Z,6.30
2023-01-05T15:23:45.886Z,6.03
2023-01-05T15:26:47.084Z,7.27
2023-01-05T15:29:28.857Z,5.67
2023-01-05T15:31:57.528Z,6.20
2023-01-05T15:34:29.199Z,7.10
2023-01-05T15:37:05.300Z,7.07
2023-01-05T15:39:46.453Z,6.90
2023-01-05T15:42:19.617Z,6.23
2023-01-05T15:44:47.454Z,5.93
2023-01-05T15:47:14.058Z,6.67
2023-01-05T15:49:40.771Z,6.80
2023-01-05T15:52:20.661Z,5.63
2023-01-05T15:55:17.094Z,6.80
2023-01-05T15:57:51.299Z,6.03
2023-01-05T16:00:23.861Z,6.47
2023-01-05T16:02:50.768Z,6.03
2023-01-05T16:05:22.461Z,6.30
2023-01-05T16:07:54.291Z,6.37
2023-01-05T16:10:42.560Z,5.93
2023-01-05T16:13:15.595Z,6.07
2023-01-05T16:15:42.366Z,6.13
2023-01-05T16:18:13.285Z,5.30
2023-01-05T16:20:41.099Z,6.30
2023-01-05T16:23:12.189Z,5.90
2023-01-05T16:25:43.839Z,6.23
2023-01-05T16:28:17.736Z,6.60
2023-01-05T16:30:45.440Z,5.30
2023-01-05T16:33:34.939Z,4.60
2023-01-05T16:36:09.059Z,5.67
2023-01-05T16:38:35.866Z,5.13
2023-01-05T16:41:13.373Z,5.87
2023-01-05T16:43:39.913Z,5.50
2023-01-05T16:46:23.906Z,4.63
2023-01-05T16:48:53.270Z,5.57
2023-01-05T16:51:24.016Z,5.50
2023-01-05T16:53:54.808Z,6.10
2023-01-05T16:56:22.399Z,5.00
2023-01-05T16:58:49.213Z,5.37
2023-01-05T17:01:35.798Z,4.70
2023-01-05T17:04:12.642Z,4.50
2023-01-05T17:06:39.489Z,4.97
2023-01-05T17:09:20.201Z,5.90
2023-01-05T17:11:46.844Z,5.33
2023-01-05T17:14:13.691Z,5.40
2023-01-05T17:16:40.498Z,4.77
2023-01-05T17:19:14.281Z,4.60
2023-01-05T17:21:46.053Z,5.60
2023-01-05T17:24:13.011Z,4.57
2023-01-05T17:26:42.774Z,4.83
2023-01-05T17:29:22.143Z,4.70
2023-01-05T17:31:48.826Z,4.73
2023-01-05T17:34:15.626Z,5.13
2023-01-05T17:36:42.342Z,4.20
2023-01-05T17:39:10.903Z,5.03
2023-01-05T17:41:37.505Z,4.57
2023-01-05T17:44:04.163Z,4.53
2023-01-05T17:46:32.471Z,4.87
2023-01-05T17:49:00.490Z,4.63
2023-01-05T17:51:28.167Z,4.27
2023-01-05T17:53:58.242Z,4.27
2023-01-05T17:56:25.214Z,4.13
2023-01-05T17:58:51.916Z,4.23
2023-01-05T18:01:18.745Z,4.50
2023-01-05T18:03:45.374Z,4.30
2023-01-05T18:06:12.105Z,4.23
2023-01-05T18:08:38.716Z,4.03
2023-01-05T18:11:05.914Z,3.83
2023-01-05T18:13:33.205Z,4.00
2023-01-05T18:15:59.942Z,4.37
2023-01-05T18:18:27.785Z,4.07
2023-01-05T18:20:54.395Z,4.00
2023-01-05T18:23:21.016Z,3.90
2023-01-05T18:25:47.658Z,4.63
2023-01-05T18:28:14.309Z,4.67
2023-01-05T18:30:41.864Z,3.70
2023-01-05T18:33:08.496Z,3.90
2023-01-05T18:35:36.141Z,3.90
2023-01-05T18:38:04.973Z,4.17
2023-01-05T18:40:31.603Z,3.70
2023-01-05T18:42:58.212Z,3.70
2023-01-05T18:45:38.415Z,3.77
2023-01-05T18:48:05.841Z,4.00
2023-01-05T18:50:32.432Z,3.90
2023-01-05T18:52:59.034Z,3.53
2023-01-05T18:55:25.614Z,4.27
2023-01-05T18:57:52.240Z,3.63
2023-01-05T19:00:18.920Z,4.10
2023-01-05T19:02:45.523Z,3.60
2023-01-05T19:05:12.134Z,3.80
2023-01-05T19:07:39.750Z,3.67
2023-01-05T19:10:06.794Z,3.80
2023-01-05T19:12:33.427Z,3.70
2023-01-05T19:15:00.033Z,4.10
2023-01-05T19:17:26.634Z,3.77
2023-01-05T19:19:54.898Z,3.40
2023-01-05T19:22:21.518Z,4.00
2023-01-05T19:24:48.108Z,3.47
2023-01-05T19:27:14.718Z,3.27
2023-01-05T19:29:42.073Z,4.27
2023-01-05T19:32:08.712Z,3.23
2023-01-05T19:34:35.335Z,3.83
2023-01-05T19:37:05.442Z,3.43
2023-01-05T19:39:32.109Z,3.33
2023-01-05T19:41:58.746Z,3.47
2023-01-05T19:44:25.356Z,3.63
2023-01-05T19:46:53.273Z,3.40
2023-01-05T19:49:24.675Z,3.43
2023-01-05T19:51:51.352Z,3.40
2023-01-05T19:54:18.097Z,3.37
2023-01-05T19:56:44.833Z,3.40
2023-01-05T19:59:22.669Z,3.50
2023-01-05T20:01:49.309Z,3.50
2023-01-05T20:04:16.016Z,3.47
2023-01-05T20:06:44.320Z,2.97
2023-01-05T20:09:18.774Z,3.33
2023-01-05T20:11:48.753Z,3.20
2023-01-05T20:14:22.337Z,3.27
2023-01-05T20:16:55.838Z,3.37
2023-01-05T20:19:23.482Z,3.07
2023-01-05T20:21:50.635Z,3.37
2023-01-05T20:24:19.145Z,3.33
2023-01-05T20:26:46.170Z,2.90
2023-01-05T20:29:13.606Z,2.70
2023-01-05T20:31:45.632Z,3.33
2023-01-05T20:34:15.517Z,2.80
2023-01-05T20:36:42.152Z,3.17
2023-01-05T20:39:09.422Z,3.97
2023-01-05T20:41:38.663Z,3.17
2023-01-05T20:44:05.547Z,3.57
2023-01-05T20:46:34.674Z,2.80
2023-01-05T20:49:01.295Z,3.00
2023-01-05T20:51:27.914Z,3.20
2023-01-05T20:53:55.066Z,2.70
2023-01-05T20:56:23.825Z,2.93
2023-01-05T20:58:51.409Z,2.77
2023-01-05T21:01:18.141Z,3.10
2023-01-05T21:03:44.893Z,3.10
2023-01-05T21:06:12.852Z,2.80
2023-01-05T21:08:39.531Z,2.80
2023-01-05T21:11:06.611Z,3.30
2023-01-05T21:13:33.437Z,3.50
2023-01-05T21:16:04.781Z,3.10
2023-01-05T21:18:32.535Z,4.00
2023-01-05T21:20:59.244Z,3.20
2023-01-05T21:23:26.050Z,3.13
2023-01-05T21:26:06.665Z,3.13
2023-01-05T21:28:37.635Z,3.47
2023-01-05T21:31:09.175Z,3.20
2023-01-05T21:33:36.361Z,3.30
2023-01-05T21:36:06.669Z,3.50
2023-01-05T21:39:01.681Z,3.13
2023-01-05T21:41:40.157Z,2.80
2023-01-05T21:44:07.394Z,3.20
2023-01-05T21:46:34.595Z,3.50
2023-01-05T21:49:01.223Z,3.20
2023-01-05T21:51:46.306Z,3.50
2023-01-05T21:54:31.728Z,3.13
2023-01-05T21:56:58.878Z,3.10
2023-01-05T21:59:25.637Z,3.90
2023-01-05T22:01:52.236Z,2.97
2023-01-05T22:04:18.921Z,3.43
2023-01-05T22:06:45.516Z,3.17
2023-01-05T22:09:12.118Z,2.90
2023-01-05T22:11:38.877Z,2.90
2023-01-05T22:14:05.476Z,3.40
2023-01-05T22:16:32.117Z,3.27
2023-01-05T22:18:58.743Z,3.13
2023-01-05T22:21:25.368Z,3.60
2023-01-05T22:23:51.985Z,3.20
2023-01-05T22:26:19.474Z,3.47
2023-01-05T22:28:47.756Z,3.30
2023-01-05T22:31:19.458Z,3.33
2023-01-05T22:33:49.645Z,3.93
2023-01-05T22:36:17.079Z,3.40
2023-01-05T22:38:44.445Z,3.70
2023-01-05T22:41:12.271Z,3.27
2023-01-05T22:43:39.925Z,3.77
2023-01-05T22:46:08.491Z,3.13
2023-01-05T22:48:36.183Z,3.50
2023-01-05T22:51:13.571Z,3.70
2023-01-05T22:53:40.474Z,3.67
2023-01-05T22:56:09.111Z,3.93
2023-01-05T22:58:35.830Z,3.40
2023-01-05T23:01:29.591Z,3.70
2023-01-05T23:03:57.437Z,3.80
2023-01-05T23:06:24.155Z,3.90
2023-01-05T23:08:50.950Z,3.53
2023-01-05T23:11:31.916Z,3.60
2023-01-05T23:13:59.285Z,3.70
2023-01-05T23:16:26.023Z,3.23
2023-01-05T23:18:52.796Z,3.37
2023-01-05T23:21:20.497Z,3.73
2023-01-05T23:23:47.273Z,4.00
2023-01-05T23:26:14.633Z,3.70
2023-01-05T23:28:42.687Z,3.50
2023-01-05T23:31:11.418Z,3.83
2023-01-05T23:33:38.085Z,3.57
2023-01-05T23:36:05.202Z,2.90
2023-01-05T23:38:32.117Z,3.77
2023-01-05T23:41:00.140Z,3.80
2023-01-05T23:43:28.158Z,3.20
2023-01-05T23:46:04.280Z,3.20
2023-01-05T23:48:31.031Z,3.03
2023-01-05T23:50:58.030Z,3.70
2023-01-05T23:53:25.060Z,3.30
2023-01-05T23:55:51.723Z,3.77
2023-01-05T23:58:18.306Z,2.90
